Photometre #646[NE_1.6] OHP_OBSERVATOIRE AOT

File : 20221123_646.hum

23/11/2022,07:41:28,TEMP=3.8,BA=5.64,STAT.A=8.5,ExtBa=12.99
23/11/2022,07:46:01,TEMP=3.9,BA=5.64,STAT.A=8.5,ExtBa=13.00
23/11/2022,07:51:24,TEMP=4.0,BA=5.64,STAT.A=8.5,ExtBa=12.99
23/11/2022,07:57:55,TEMP=4.2,BA=5.64,STAT.A=8.5,ExtBa=12.99
23/11/2022,08:05:53,TEMP=4.5,BA=5.64,STAT.A=8.5,ExtBa=12.99
23/11/2022,08:16:00,TEMP=4.9,BA=5.64,STAT.A=8.5,ExtBa=12.99
23/11/2022,08:23:54,TEMP=5.2,BA=5.64,STAT.F,ExtBa=12.95
23/11/2022,08:38:52,TEMP=5.8,BA=5.64,STAT.D=8.5,ExtBa=12.98
23/11/2022,08:53:52,TEMP=6.4,BA=5.64,STAT.D=8.5,ExtBa=12.98
23/11/2022,09:08:52,TEMP=6.9,BA=5.64,STAT.D=8.5,ExtBa=12.98
23/11/2022,09:23:54,TEMP=7.4,BA=5.64,STAT.F,ExtBa=12.94
23/11/2022,09:38:52,TEMP=8.0,BA=5.64,STAT.D=8.5,ExtBa=12.98
23/11/2022,09:53:52,TEMP=8.4,BA=5.64,STAT.D=9.0,ExtBa=12.98
23/11/2022,10:08:52,TEMP=9.6,BA=5.64,STAT.D=9.0,ExtBa=12.98
23/11/2022,10:23:54,TEMP=10.4,BA=5.64,STAT.F,ExtBa=12.94
23/11/2022,10:39:13,TEMP=11.5,BA=5.60,STAT.D=9.0,ExtBa=12.64
23/11/2022,10:53:52,TEMP=11.4,BA=5.64,STAT.D=9.0,ExtBa=13.00
23/11/2022,11:08:52,TEMP=11.0,BA=5.64,STAT.D=9.0,ExtBa=13.08
23/11/2022,11:23:54,TEMP=11.6,BA=5.64,STAT.F,ExtBa=13.09
23/11/2022,11:38:52,TEMP=11.6,BA=5.60,STAT.D=9.0,ExtBa=12.84
23/11/2022,11:53:52,TEMP=11.4,BA=5.64,STAT.D=9.0,ExtBa=13.03
23/11/2022,12:08:52,TEMP=11.2,BA=5.64,STAT.D=9.0,ExtBa=13.08
23/11/2022,12:23:54,TEMP=10.7,BA=5.64,STAT.F,ExtBa=13.08
23/11/2022,12:38:52,TEMP=9.3,BA=5.64,STAT.D=9.0,ExtBa=13.16
23/11/2022,12:53:52,TEMP=8.6,BA=5.64,STAT.D=9.0,ExtBa=13.17
23/11/2022,13:08:52,TEMP=8.4,BA=5.64,STAT.D=9.0,ExtBa=13.14
23/11/2022,13:23:54,TEMP=8.4,BA=5.64,STAT.F,ExtBa=13.07
23/11/2022,13:38:52,TEMP=9.0,BA=5.64,STAT.D=9.0,ExtBa=13.09
23/11/2022,13:53:52,TEMP=10.3,BA=5.64,STAT.D=9.0,ExtBa=13.07
23/11/2022,14:08:52,TEMP=10.1,BA=5.64,STAT.D=9.0,ExtBa=13.05
23/11/2022,14:23:54,TEMP=11.1,BA=5.64,STAT.F,ExtBa=13.00
23/11/2022,14:33:31,TEMP=12.2,BA=5.60,STAT.b=9.0
23/11/2022,14:34:45,TEMP=12.1,BA=5.60,STAT.A=9.0,ExtBa=12.66
23/11/2022,14:41:53,TEMP=11.6,BA=5.64,STAT.A=9.0,ExtBa=12.88
23/11/2022,14:49:52,TEMP=11.3,BA=5.64,STAT.A=9.0,ExtBa=12.99
23/11/2022,14:56:22,TEMP=10.7,BA=5.60,STAT.A=9.0,ExtBa=13.03
23/11/2022,15:01:45,TEMP=10.3,BA=5.64,STAT.A=9.0,ExtBa=13.04
23/11/2022,15:06:18,TEMP=10.0,BA=5.64,STAT.A=9.0,ExtBa=13.05